Time;durP1;ratioP1;P1;durP2;ratioP2;P2;SDS_P1;SDS_P2;PMS_P1;PMS_P2;Temp;Humidity;BMP_temperature;BMP_pressure;BME280_temperature;BME280_humidity;BME280_pressure;Samples;Min_cycle;Max_cycle;Signal;HPM_P1;HPM_P2
2022/11/19 00:01:16;;;;;;;37.63;24.50;;;6.90;99.90;;;;;;4862515;29;38279;-72
2022/11/19 00:03:43;;;;;;;40.27;24.50;;;6.80;99.90;;;;;;4863518;29;38452;-72
2022/11/19 00:06:12;;;;;;;40.03;24.97;;;6.80;99.90;;;;;;4861567;29;37697;-73
2022/11/19 00:08:39;;;;;;;42.13;24.27;;;6.70;99.90;;;;;;4864102;29;37042;-74
2022/11/19 00:11:14;;;;;;;43.70;24.57;;;6.60;99.90;;;;;;4863313;29;38322;-74
2022/11/19 00:13:41;;;;;;;36.73;22.80;;;6.50;99.90;;;;;;4863815;29;37968;-74
2022/11/19 00:16:12;;;;;;;39.60;22.50;;;6.40;99.90;;;;;;4865812;29;38298;-74
2022/11/19 00:18:39;;;;;;;41.23;23.97;;;6.40;99.90;;;;;;4868803;29;39344;-74
2022/11/19 00:21:13;;;;;;;40.03;23.23;;;6.40;99.90;;;;;;4875348;29;37105;-73
2022/11/19 00:23:39;;;;;;;46.80;26.07;;;6.40;99.90;;;;;;4877083;29;38883;-72
2022/11/19 00:26:13;;;;;;;43.47;23.90;;;6.40;99.90;;;;;;4867839;29;36805;-73
2022/11/19 00:28:40;;;;;;;47.63;25.73;;;6.40;99.90;;;;;;4861893;29;39880;-73
2022/11/19 00:31:09;;;;;;;36.33;23.17;;;6.40;99.90;;;;;;4860355;29;37189;-73
2022/11/19 00:33:36;;;;;;;42.80;23.60;;;6.30;99.90;;;;;;4878982;29;38248;-73
2022/11/19 00:36:03;;;;;;;44.00;23.90;;;6.20;99.90;;;;;;4864460;29;37262;-73
2022/11/19 00:38:30;;;;;;;46.47;25.50;;;6.10;99.90;;;;;;4863770;29;38614;-71
2022/11/19 00:40:56;;;;;;;47.97;27.00;;;6.20;99.90;;;;;;4885233;29;38688;-73
2022/11/19 00:46:10;;;;;;;41.90;25.23;;;6.10;99.90;;;;;;4864612;29;38982;-73
2022/11/19 00:48:39;;;;;;;40.07;24.37;;;6.10;99.90;;;;;;4862593;29;37869;-73
2022/11/19 00:51:07;;;;;;;40.93;24.17;;;6.10;99.90;;;;;;4865791;29;38201;-74
2022/11/19 00:53:34;;;;;;;52.17;27.23;;;6.00;99.90;;;;;;4870042;29;36895;-73
2022/11/19 00:56:05;;;;;;;46.87;25.83;;;6.00;99.90;;;;;;4886921;29;38224;-73
2022/11/19 00:58:31;;;;;;;49.33;26.67;;;6.00;99.90;;;;;;4884220;29;47777;-73
2022/11/19 01:00:57;;;;;;;38.80;22.97;;;6.00;99.90;;;;;;4881463;29;38623;-73
2022/11/19 01:03:24;;;;;;;36.13;22.40;;;6.00;99.90;;;;;;4874570;29;38740;-73
2022/11/19 01:05:50;;;;;;;36.97;21.33;;;6.00;99.90;;;;;;4875077;29;36468;-73
2022/11/19 01:08:17;;;;;;;42.43;23.00;;;5.90;99.90;;;;;;4887053;29;39843;-73
2022/11/19 01:10:43;;;;;;;36.43;21.47;;;5.80;99.90;;;;;;4900449;29;38736;-71
2022/11/19 01:15:55;;;;;;;40.40;23.83;;;5.90;99.90;;;;;;4888521;29;38142;-74
2022/11/19 01:18:22;;;;;;;37.83;23.03;;;6.00;99.90;;;;;;4865550;29;37669;-72
2022/11/19 01:20:48;;;;;;;46.07;25.27;;;5.90;99.90;;;;;;4874974;29;37680;-74
2022/11/19 01:23:14;;;;;;;38.60;23.03;;;5.80;99.90;;;;;;4889116;29;38174;-73
2022/11/19 01:25:40;;;;;;;45.07;24.33;;;5.70;99.90;;;;;;4874706;29;37548;-73
2022/11/19 01:28:07;;;;;;;42.00;24.23;;;5.70;99.90;;;;;;4866285;29;39316;-72
2022/11/19 01:30:33;;;;;;;42.60;24.23;;;5.60;99.90;;;;;;4885882;29;39338;-73
2022/11/19 01:33:01;;;;;;;41.30;23.03;;;5.60;99.90;;;;;;4884562;29;37332;-72
2022/11/19 01:35:27;;;;;;;40.90;23.23;;;5.60;99.90;;;;;;4869444;29;47153;-73
2022/11/19 01:37:59;;;;;;;41.87;23.27;;;5.50;99.90;;;;;;4886989;29;38573;-72
2022/11/19 01:40:27;;;;;;;46.00;25.15;;;5.50;99.90;;;;;;4885340;29;37413;-74
2022/11/19 01:42:53;;;;;;;48.63;25.93;;;5.50;99.90;;;;;;4877819;29;37392;-74
2022/11/19 01:45:28;;;;;;;49.10;26.40;;;5.50;99.90;;;;;;4863947;29;36485;-74
2022/11/19 01:47:58;;;;;;;40.70;23.97;;;5.50;99.90;;;;;;4888539;29;40248;-74
2022/11/19 01:50:33;;;;;;;48.10;26.33;;;5.50;99.90;;;;;;4871339;29;37804;-73
2022/11/19 01:53:02;;;;;;;47.27;27.53;;;5.50;99.90;;;;;;4888415;29;38055;-73
2022/11/19 01:55:29;;;;;;;47.10;26.10;;;5.50;99.90;;;;;;4869402;29;47105;-73
2022/11/19 01:57:58;;;;;;;47.40;25.97;;;5.50;99.90;;;;;;4871650;29;37623;-74
2022/11/19 02:03:00;;;;;;;47.17;26.93;;;5.40;99.90;;;;;;5207353;23;20061;-75
2022/11/19 02:05:30;;;;;;;41.80;26.57;;;5.40;99.90;;;;;;4872283;29;35288;-76
2022/11/19 02:07:57;;;;;;;42.33;25.17;;;5.40;99.90;;;;;;4893207;29;39479;-77
2022/11/19 02:10:43;;;;;;;32.40;22.20;;;5.30;99.90;;;;;;4875204;29;37243;-76
2022/11/19 02:13:40;;;;;;;32.67;21.70;;;5.20;99.90;;;;;;4894181;29;36578;-74
2022/11/19 02:16:22;;;;;;;36.57;22.03;;;5.20;99.90;;;;;;4890772;29;37436;-75
2022/11/19 02:19:13;;;;;;;30.17;20.40;;;5.20;99.90;;;;;;4885407;29;39114;-74
2022/11/19 02:22:28;;;;;;;36.80;23.00;;;5.10;99.90;;;;;;4888635;29;48184;-75
2022/11/19 02:25:19;;;;;;;41.83;23.57;;;5.00;99.90;;;;;;4882313;29;48368;-75
2022/11/19 02:28:25;;;;;;;45.50;25.47;;;5.10;99.90;;;;;;4893340;29;48481;-74
2022/11/19 02:31:05;;;;;;;40.37;24.60;;;5.00;99.90;;;;;;4887308;29;48994;-74
2022/11/19 02:33:34;;;;;;;40.67;25.47;;;5.00;99.90;;;;;;4873535;29;47186;-75
2022/11/19 02:36:41;;;;;;;39.33;23.43;;;5.00;99.90;;;;;;4891733;29;38171;-75
2022/11/19 02:39:10;;;;;;;43.13;27.30;;;5.00;99.90;;;;;;4888126;29;47263;-75
2022/11/19 02:41:45;;;;;;;38.80;23.57;;;5.00;99.90;;;;;;4890934;29;39544;-76
2022/11/19 02:47:19;;;;;;;41.20;25.60;;;5.00;99.90;;;;;;4891433;29;38886;-76
2022/11/19 02:49:46;;;;;;;39.33;24.17;;;5.00;99.90;;;;;;4888400;29;38656;-74
2022/11/19 02:52:16;;;;;;;40.20;24.70;;;5.00;99.90;;;;;;4870079;29;37865;-78
2022/11/19 02:54:42;;;;;;;42.23;23.83;;;5.00;99.90;;;;;;4885326;29;38800;-77
2022/11/19 02:57:11;;;;;;;33.93;22.90;;;4.90;99.90;;;;;;4874220;29;37399;-77
2022/11/19 03:05:16;;;;;;;38.00;23.43;;;4.70;99.90;;;;;;4890134;29;39828;-76
2022/11/19 03:07:42;;;;;;;42.47;24.43;;;4.70;99.90;;;;;;4880511;29;36881;-77
2022/11/19 03:10:10;;;;;;;35.40;22.47;;;4.60;99.90;;;;;;4874967;29;37032;-77
2022/11/19 03:12:52;;;;;;;33.60;22.00;;;4.70;99.90;;;;;;4877499;29;37951;-77
2022/11/19 03:19:03;;;;;;;37.83;23.33;;;4.70;99.90;;;;;;4886171;29;49186;-76
2022/11/19 03:21:37;;;;;;;37.57;23.07;;;4.60;99.90;;;;;;4873181;29;48015;-78
2022/11/19 03:24:19;;;;;;;37.00;22.40;;;4.60;99.90;;;;;;4886900;29;38713;-77
2022/11/19 03:26:54;;;;;;;35.97;22.63;;;4.60;99.90;;;;;;4870616;29;37025;-77
2022/11/19 03:29:24;;;;;;;42.93;24.70;;;4.60;99.90;;;;;;4883807;29;38209;-77
2022/11/19 03:31:59;;;;;;;40.43;23.90;;;4.50;99.90;;;;;;4871811;29;36587;-76
2022/11/19 03:34:30;;;;;;;42.03;24.40;;;4.60;99.90;;;;;;4887515;29;37303;-77
2022/11/19 03:37:00;;;;;;;42.30;25.83;;;4.50;99.90;;;;;;4889423;29;39463;-76
2022/11/19 03:39:26;;;;;;;44.43;25.23;;;4.50;99.90;;;;;;4871437;29;38160;-76
2022/11/19 03:41:55;;;;;;;40.40;25.47;;;4.50;99.90;;;;;;4891518;29;37192;-76
2022/11/19 03:44:33;;;;;;;46.03;27.37;;;4.40;99.90;;;;;;4872074;29;37851;-77
2022/11/19 03:47:21;;;;;;;50.67;28.53;;;4.40;99.90;;;;;;4890033;29;38801;-77
2022/11/19 03:49:53;;;;;;;47.47;28.10;;;4.40;99.90;;;;;;4884700;29;48560;-77
2022/11/19 03:52:20;;;;;;;48.58;30.80;;;4.40;99.90;;;;;;4868125;29;37528;-77
2022/11/19 03:54:49;;;;;;;49.60;30.63;;;4.40;99.90;;;;;;4884400;29;38546;-76
2022/11/19 03:57:18;;;;;;;51.17;30.20;;;4.40;99.90;;;;;;4888578;29;39676;-76
2022/11/19 03:59:45;;;;;;;50.40;29.20;;;4.40;99.90;;;;;;4884295;29;39694;-77
2022/11/19 04:02:12;;;;;;;60.40;34.17;;;4.40;99.90;;;;;;4869851;29;36734;-77
2022/11/19 04:04:39;;;;;;;56.53;32.07;;;4.30;99.90;;;;;;4867648;29;37756;-76
2022/11/19 04:07:10;;;;;;;59.23;33.33;;;4.30;99.90;;;;;;4882666;29;38396;-77
2022/11/19 04:09:38;;;;;;;59.47;32.73;;;4.20;99.90;;;;;;4882295;29;36783;-77
2022/11/19 04:12:05;;;;;;;59.03;33.37;;;4.20;99.90;;;;;;4890444;29;37537;-76
2022/11/19 04:14:31;;;;;;;52.60;32.23;;;4.20;99.90;;;;;;4889666;29;38809;-76
2022/11/19 04:16:58;;;;;;;53.23;32.90;;;4.20;99.90;;;;;;4897252;29;37100;-77
2022/11/19 04:19:24;;;;;;;56.90;33.80;;;4.20;99.90;;;;;;4894879;29;38386;-77
2022/11/19 04:21:50;;;;;;;50.07;31.83;;;4.20;99.90;;;;;;4889991;29;36285;-76
2022/11/19 04:24:16;;;;;;;54.90;33.53;;;4.20;99.90;;;;;;4878785;29;37634;-76
2022/11/19 04:26:43;;;;;;;56.87;33.03;;;4.20;99.90;;;;;;4891528;29;38580;-77
2022/11/19 04:29:09;;;;;;;53.13;32.30;;;4.10;99.90;;;;;;4894530;29;38233;-77
2022/11/19 04:31:35;;;;;;;60.47;33.33;;;4.10;99.90;;;;;;4877688;29;36630;-77
2022/11/19 04:34:01;;;;;;;54.33;33.03;;;4.10;99.90;;;;;;4897135;29;38602;-76
2022/11/19 04:36:31;;;;;;;56.47;31.37;;;4.10;99.90;;;;;;4891657;29;48063;-77
2022/11/19 04:38:57;;;;;;;51.87;32.33;;;4.00;99.90;;;;;;4891607;29;38152;-77
2022/11/19 04:41:24;;;;;;;58.93;33.93;;;4.10;99.90;;;;;;4895703;29;37218;-77
2022/11/19 04:43:50;;;;;;;60.30;31.97;;;4.10;99.90;;;;;;4894985;29;38983;-77
2022/11/19 04:46:16;;;;;;;54.03;33.27;;;4.10;99.90;;;;;;4900856;29;39708;-77
2022/11/19 04:48:42;;;;;;;45.97;30.00;;;4.10;99.90;;;;;;4898871;29;38291;-77
2022/11/19 04:51:08;;;;;;;50.63;31.70;;;4.00;99.90;;;;;;4898335;29;37299;-77
2022/11/19 04:53:34;;;;;;;51.37;30.43;;;4.00;99.90;;;;;;4896873;29;39475;-78
2022/11/19 04:56:01;;;;;;;52.00;32.27;;;3.90;99.90;;;;;;4890634;29;36694;-77
2022/11/19 04:58:30;;;;;;;50.43;31.93;;;3.90;99.90;;;;;;4880601;29;36684;-77
2022/11/19 05:00:56;;;;;;;49.90;31.00;;;3.80;99.90;;;;;;4895914;29;39009;-77
2022/11/19 05:03:22;;;;;;;50.50;31.83;;;3.70;99.90;;;;;;4897881;29;37815;-76
2022/11/19 05:05:48;;;;;;;47.40;30.27;;;3.80;99.90;;;;;;4899507;29;39436;-77
2022/11/19 05:08:14;;;;;;;47.97;30.20;;;3.80;99.90;;;;;;4898977;29;38445;-77
2022/11/19 05:10:43;;;;;;;52.50;32.33;;;3.80;99.90;;;;;;4880950;29;37500;-75
2022/11/19 05:13:09;;;;;;;50.80;32.43;;;3.70;99.90;;;;;;4882379;29;37732;-76
2022/11/19 05:15:35;;;;;;;50.77;31.63;;;3.70;99.90;;;;;;4899895;29;38448;-77
2022/11/19 05:18:01;;;;;;;49.70;30.83;;;3.70;99.90;;;;;;4891538;29;36571;-77
2022/11/19 05:20:28;;;;;;;50.07;30.97;;;3.70;99.90;;;;;;4896021;29;48762;-77
2022/11/19 05:22:54;;;;;;;47.27;30.30;;;3.70;99.90;;;;;;4882636;29;36468;-76
2022/11/19 05:25:20;;;;;;;50.13;32.60;;;3.70;99.90;;;;;;4893740;29;38078;-76
2022/11/19 05:27:46;;;;;;;51.97;31.50;;;3.60;99.90;;;;;;4891222;29;37175;-77
2022/11/19 05:30:16;;;;;;;44.73;30.07;;;3.70;99.90;;;;;;4884205;29;36361;-77
2022/11/19 05:32:43;;;;;;;52.77;32.50;;;3.70;99.90;;;;;;4895317;29;38566;-76
2022/11/19 05:35:09;;;;;;;54.70;34.20;;;3.70;99.90;;;;;;4883381;29;39065;-76
2022/11/19 05:37:41;;;;;;;54.93;33.53;;;3.70;99.90;;;;;;4900892;29;38378;-77
2022/11/19 05:40:07;;;;;;;53.38;33.47;;;3.70;99.90;;;;;;4901336;29;38759;-76
2022/11/19 05:42:33;;;;;;;50.70;31.63;;;3.70;99.90;;;;;;4880790;29;38975;-76
2022/11/19 05:45:00;;;;;;;53.23;32.67;;;3.60;99.90;;;;;;4894120;29;39653;-76
2022/11/19 05:47:29;;;;;;;54.83;33.87;;;3.60;99.90;;;;;;4884173;29;38172;-78
2022/11/19 05:49:55;;;;;;;51.33;33.00;;;3.60;99.90;;;;;;4898394;29;38816;-77
2022/11/19 05:52:21;;;;;;;53.27;34.20;;;3.50;99.90;;;;;;4900286;29;38574;-77
2022/11/19 05:54:53;;;;;;;55.47;34.93;;;3.50;99.90;;;;;;4894747;29;38821;-76
2022/11/19 05:57:19;;;;;;;59.95;35.25;;;3.50;99.90;;;;;;4880593;29;37779;-77
2022/11/19 05:59:45;;;;;;;62.50;35.17;;;3.50;99.90;;;;;;4898439;29;37667;-76
2022/11/19 06:02:11;;;;;;;62.47;36.47;;;3.40;99.90;;;;;;4898312;29;38647;-76
2022/11/19 06:04:38;;;;;;;65.57;38.47;;;3.40;99.90;;;;;;4883882;29;37175;-77
2022/11/19 06:07:04;;;;;;;63.40;36.67;;;3.40;99.90;;;;;;4881537;29;36957;-76
2022/11/19 06:09:31;;;;;;;68.77;41.20;;;3.40;99.90;;;;;;4874728;29;34484;-76
2022/11/19 06:11:57;;;;;;;65.63;37.93;;;3.30;99.90;;;;;;4879560;29;39539;-77
2022/11/19 06:14:28;;;;;;;62.87;36.43;;;3.30;99.90;;;;;;4878276;29;38093;-77
2022/11/19 06:16:56;;;;;;;72.50;40.37;;;3.30;99.90;;;;;;4897286;29;37921;-77
2022/11/19 06:19:23;;;;;;;63.67;39.73;;;3.30;99.90;;;;;;4879799;29;37442;-77
2022/11/19 06:21:50;;;;;;;77.83;42.00;;;3.30;99.90;;;;;;4894621;29;39207;-76
2022/11/19 06:24:17;;;;;;;64.90;39.77;;;3.40;99.90;;;;;;4877304;29;36882;-76
2022/11/19 06:26:43;;;;;;;64.53;38.73;;;3.40;99.90;;;;;;4895045;29;39599;-76
2022/11/19 06:29:12;;;;;;;62.77;37.90;;;3.40;99.90;;;;;;4880137;29;36250;-75
2022/11/19 06:31:42;;;;;;;64.30;38.23;;;3.30;99.90;;;;;;4894027;29;37604;-76
2022/11/19 06:34:09;;;;;;;63.63;38.47;;;3.20;99.90;;;;;;4873515;29;37517;-76
2022/11/19 06:36:35;;;;;;;61.23;39.43;;;3.10;99.90;;;;;;4888849;29;38689;-76
2022/11/19 06:39:01;;;;;;;66.70;41.33;;;3.20;99.90;;;;;;4875196;29;34923;-76
2022/11/19 06:41:30;;;;;;;61.90;38.37;;;3.20;99.90;;;;;;4888863;29;38300;-76
2022/11/19 06:43:56;;;;;;;60.43;38.93;;;3.20;99.90;;;;;;4877000;29;38718;-76
2022/11/19 06:46:23;;;;;;;61.30;38.50;;;3.20;99.90;;;;;;4896034;29;38514;-76
2022/11/19 06:48:49;;;;;;;60.20;38.33;;;3.20;99.90;;;;;;4874387;29;37107;-76
2022/11/19 06:51:15;;;;;;;59.67;38.30;;;3.00;99.90;;;;;;4889629;29;38906;-75
2022/11/19 06:53:41;;;;;;;55.03;35.83;;;3.00;99.90;;;;;;4891960;29;39070;-76
2022/11/19 06:56:07;;;;;;;55.97;35.67;;;2.90;99.90;;;;;;4889401;29;38189;-76
2022/11/19 06:58:34;;;;;;;55.20;35.90;;;2.80;99.90;;;;;;4891665;29;38531;-76
2022/11/19 07:01:00;;;;;;;56.47;36.53;;;2.80;99.90;;;;;;4888709;29;39007;-76
2022/11/19 07:03:26;;;;;;;55.50;36.30;;;2.80;99.90;;;;;;4869473;29;39389;-76
2022/11/19 07:06:02;;;;;;;56.77;35.90;;;2.90;99.90;;;;;;4890761;29;38819;-77
2022/11/19 07:08:32;;;;;;;55.90;35.70;;;2.80;99.90;;;;;;4889371;29;36519;-76
2022/11/19 07:10:58;;;;;;;58.13;36.67;;;2.80;99.90;;;;;;4876019;29;38168;-76
2022/11/19 07:13:55;;;;;;;55.67;35.67;;;2.80;99.90;;;;;;4889181;29;38061;-77
2022/11/19 07:16:10;;;;;;;56.07;35.27;;;2.70;99.90;;;;;;4889583;29;39168;-76
2022/11/19 07:18:37;;;;;;;55.97;35.47;;;2.80;99.90;;;;;;4871517;29;36196;-75
2022/11/19 07:21:03;;;;;;;54.13;35.50;;;2.80;99.90;;;;;;4873542;29;39623;-76
2022/11/19 07:23:29;;;;;;;54.07;34.90;;;2.80;99.90;;;;;;4872174;29;41056;-76
2022/11/19 07:26:02;;;;;;;54.53;34.47;;;2.70;99.90;;;;;;4890138;29;36807;-76
2022/11/19 07:28:29;;;;;;;56.75;35.22;;;2.70;99.90;;;;;;4892481;29;37023;-76
2022/11/19 07:30:55;;;;;;;55.40;34.50;;;2.70;99.90;;;;;;4890820;29;38351;-76
2022/11/19 07:33:22;;;;;;;57.43;35.13;;;2.70;99.90;;;;;;4886655;29;37004;-76
2022/11/19 07:35:48;;;;;;;52.27;34.83;;;2.70;99.90;;;;;;4890826;29;37248;-76
2022/11/19 07:38:14;;;;;;;57.40;36.10;;;2.70;99.90;;;;;;4891160;29;37132;-76
2022/11/19 07:40:40;;;;;;;57.23;35.60;;;2.60;99.90;;;;;;4872504;29;38773;-77
2022/11/19 07:43:09;;;;;;;56.77;36.13;;;2.60;99.90;;;;;;4873312;29;37304;-75
2022/11/19 07:45:36;;;;;;;57.30;34.77;;;2.60;99.90;;;;;;4879860;29;38337;-76
2022/11/19 07:48:03;;;;;;;55.07;35.37;;;2.60;99.90;;;;;;4859950;29;37525;-76
2022/11/19 07:50:29;;;;;;;53.00;34.23;;;2.60;99.90;;;;;;4864442;29;47172;-76
2022/11/19 07:53:00;;;;;;;60.20;37.43;;;2.60;99.90;;;;;;4869544;29;37892;-77
2022/11/19 07:55:26;;;;;;;56.33;33.87;;;2.60;99.90;;;;;;4888045;29;38535;-76
2022/11/19 07:57:53;;;;;;;58.23;34.57;;;2.60;99.90;;;;;;4883779;29;36246;-77
2022/11/19 08:00:19;;;;;;;55.13;35.03;;;2.60;99.90;;;;;;4870171;29;38291;-75
2022/11/19 08:02:45;;;;;;;58.73;36.10;;;2.60;99.90;;;;;;4886481;29;37712;-76
2022/11/19 08:05:11;;;;;;;54.17;35.10;;;2.60;99.90;;;;;;4890937;29;37941;-76
2022/11/19 08:07:41;;;;;;;55.50;34.60;;;2.50;99.90;;;;;;4871520;29;36429;-76
2022/11/19 08:10:09;;;;;;;56.77;35.87;;;2.60;99.90;;;;;;4891146;29;38844;-76
2022/11/19 08:12:35;;;;;;;53.23;33.87;;;2.60;99.90;;;;;;4871975;29;37437;-76
2022/11/19 08:15:02;;;;;;;53.73;34.50;;;2.60;99.90;;;;;;4895704;29;38111;-76
2022/11/19 08:20:16;;;;;;;57.17;34.93;;;2.60;99.90;;;;;;4883066;29;38969;-75
2022/11/19 08:22:42;;;;;;;56.47;35.07;;;2.60;99.90;;;;;;4889103;29;38734;-77
2022/11/19 08:25:08;;;;;;;51.83;33.03;;;2.60;99.90;;;;;;4890420;29;37898;-76
2022/11/19 08:27:34;;;;;;;51.13;33.33;;;2.70;99.90;;;;;;4875251;29;36795;-77
2022/11/19 08:30:01;;;;;;;58.70;35.33;;;2.60;99.90;;;;;;4892204;29;39080;-76
2022/11/19 08:32:34;;;;;;;52.13;34.33;;;2.70;99.90;;;;;;4865599;29;37434;-78
2022/11/19 08:35:00;;;;;;;51.90;32.83;;;2.70;99.90;;;;;;4880213;29;37937;-78
2022/11/19 08:37:27;;;;;;;52.27;31.47;;;2.70;99.90;;;;;;4876493;29;38008;-78
2022/11/19 08:39:53;;;;;;;50.37;31.33;;;2.70;99.90;;;;;;4876653;29;39016;-77
2022/11/19 08:45:07;;;;;;;46.60;30.10;;;2.60;99.90;;;;;;4886224;29;38754;-78
2022/11/19 08:47:36;;;;;;;48.60;31.47;;;2.70;99.90;;;;;;4891277;29;38435;-78
2022/11/19 08:50:03;;;;;;;49.90;33.10;;;2.70;99.90;;;;;;4897151;29;39084;-78
2022/11/19 08:52:29;;;;;;;47.83;31.67;;;2.80;99.90;;;;;;4894785;29;49018;-78
2022/11/19 08:54:55;;;;;;;44.73;29.70;;;2.80;99.90;;;;;;4894858;29;37721;-78
2022/11/19 08:57:22;;;;;;;52.63;31.27;;;2.70;99.90;;;;;;4894531;29;36492;-78
2022/11/19 08:59:48;;;;;;;47.37;30.87;;;2.70;99.90;;;;;;4897777;29;39233;-77
2022/11/19 09:02:14;;;;;;;44.67;29.70;;;2.70;99.90;;;;;;4894691;29;39663;-78
2022/11/19 09:04:40;;;;;;;47.27;29.97;;;2.50;99.90;;;;;;4885841;29;39059;-77
2022/11/19 09:07:09;;;;;;;50.23;31.83;;;2.50;99.90;;;;;;4887421;29;36460;-77
2022/11/19 09:09:41;;;;;;;46.77;29.93;;;2.50;99.90;;;;;;4894818;29;41077;-77
2022/11/19 09:12:08;;;;;;;45.38;29.83;;;2.60;99.90;;;;;;4888824;29;38679;-77
2022/11/19 09:14:34;;;;;;;46.30;29.80;;;2.70;99.90;;;;;;4873065;29;37186;-77
2022/11/19 09:17:00;;;;;;;46.43;29.90;;;2.70;99.90;;;;;;4897694;29;38318;-77
2022/11/19 09:19:32;;;;;;;39.77;27.47;;;2.70;99.90;;;;;;4891807;29;39877;-77
2022/11/19 09:21:58;;;;;;;44.53;28.42;;;2.70;99.90;;;;;;4878894;29;37094;-78
2022/11/19 09:24:25;;;;;;;42.00;28.03;;;2.80;99.90;;;;;;4893038;29;36478;-78
2022/11/19 09:26:51;;;;;;;41.73;27.57;;;2.80;99.90;;;;;;4880372;29;36475;-78
2022/11/19 09:29:17;;;;;;;42.60;27.23;;;2.80;99.90;;;;;;4892799;29;38176;-77
2022/11/19 09:31:43;;;;;;;39.77;27.23;;;2.80;99.90;;;;;;4898039;29;38794;-78
2022/11/19 09:34:09;;;;;;;43.43;29.07;;;2.80;99.90;;;;;;4896162;29;38389;-77
2022/11/19 09:36:35;;;;;;;40.53;27.30;;;2.80;99.90;;;;;;4898370;29;37361;-78
2022/11/19 09:39:02;;;;;;;42.43;26.70;;;2.90;99.90;;;;;;4900502;29;38946;-78
2022/11/19 09:41:37;;;;;;;40.23;26.90;;;2.80;99.90;;;;;;4880419;29;37181;-78
2022/11/19 09:44:03;;;;;;;39.43;26.00;;;2.70;99.90;;;;;;4893889;29;37390;-76
2022/11/19 09:46:57;;;;;;;42.27;25.47;;;2.70;99.90;;;;;;4892833;29;36413;-75
2022/11/19 09:49:32;;;;;;;36.37;24.20;;;2.80;99.90;;;;;;4891106;29;37671;-75
2022/11/19 09:52:04;;;;;;;38.30;25.20;;;2.80;99.90;;;;;;4878918;29;37569;-76
2022/11/19 09:54:31;;;;;;;36.88;25.35;;;2.80;99.90;;;;;;4888411;29;47669;-76
2022/11/19 09:57:04;;;;;;;38.20;24.40;;;2.80;99.90;;;;;;4891186;29;38257;-75
2022/11/19 09:59:34;;;;;;;;;;;2.80;99.90;;;;;;4872206;29;47102;-76
2022/11/19 10:02:02;;;;;;;40.13;23.70;;;2.90;99.90;;;;;;4894237;29;37976;-75
2022/11/19 10:04:32;;;;;;;37.03;23.83;;;3.00;99.90;;;;;;4894394;29;48472;-76
2022/11/19 10:07:31;;;;;;;36.80;23.33;;;3.00;99.90;;;;;;4891974;29;35140;-76
2022/11/19 10:10:33;;;;;;;33.67;22.27;;;3.10;99.90;;;;;;4891295;29;48820;-77
2022/11/19 10:13:23;;;;;;;33.07;21.07;;;3.10;99.90;;;;;;4889609;29;47948;-75
2022/11/19 10:16:25;;;;;;;32.73;22.10;;;3.20;99.90;;;;;;4865197;29;45569;-75
2022/11/19 10:19:02;;;;;;;36.88;23.65;;;3.20;99.90;;;;;;4886292;29;48361;-74
2022/11/19 10:21:41;;;;;;;37.00;23.27;;;3.30;99.90;;;;;;4882099;29;47710;-76
2022/11/19 10:24:16;;;;;;;33.83;22.93;;;3.20;99.90;;;;;;4882776;29;37710;-76
2022/11/19 10:26:53;;;;;;;35.57;23.97;;;3.10;99.90;;;;;;4881715;29;38282;-75
2022/11/19 10:29:23;;;;;;;36.37;24.40;;;3.30;99.90;;;;;;4884836;29;36504;-76
2022/11/19 10:31:50;;;;;;;33.53;23.43;;;3.40;99.90;;;;;;4874502;29;37686;-76
2022/11/19 10:34:26;;;;;;;35.20;24.30;;;3.40;99.90;;;;;;4889180;29;38457;-76
2022/11/19 10:37:08;;;;;;;40.63;25.90;;;3.30;99.90;;;;;;4890005;29;38573;-75
2022/11/19 10:39:56;;;;;;;40.75;26.02;;;3.30;99.90;;;;;;4887511;29;47340;-75
2022/11/19 10:42:33;;;;;;;39.97;27.03;;;3.30;99.90;;;;;;4888779;29;39037;-75
2022/11/19 10:45:15;;;;;;;42.20;26.37;;;3.40;99.90;;;;;;4884292;29;39224;-73
2022/11/19 10:47:47;;;;;;;38.30;25.80;;;3.30;99.90;;;;;;4887746;29;49450;-74
2022/11/19 10:50:21;;;;;;;38.80;26.70;;;3.20;99.90;;;;;;4858436;29;37453;-73
2022/11/19 10:52:53;;;;;;;38.53;26.23;;;3.30;99.90;;;;;;4880180;29;37439;-72
2022/11/19 10:55:28;;;;;;;38.50;25.63;;;3.10;99.90;;;;;;4895018;29;37911;-73
2022/11/19 10:58:09;;;;;;;41.53;28.13;;;3.00;99.90;;;;;;4895304;29;38600;-73
2022/11/19 11:00:37;;;;;;;39.97;26.33;;;3.00;99.90;;;;;;4875548;29;47298;-75
2022/11/19 11:03:10;;;;;;;39.53;26.83;;;2.90;99.90;;;;;;4892187;29;37468;-74
2022/11/19 11:05:58;;;;;;;40.37;26.47;;;2.90;99.90;;;;;;4887834;29;39589;-75
2022/11/19 11:08:24;;;;;;;37.13;24.77;;;2.90;99.90;;;;;;4890019;29;38521;-73
2022/11/19 11:10:51;;;;;;;39.20;24.83;;;2.90;99.90;;;;;;4884990;29;37283;-75
2022/11/19 11:16:21;;;;;;;39.93;26.40;;;3.00;99.90;;;;;;4890285;29;38796;-76
2022/11/19 11:18:49;;;;;;;36.67;26.17;;;3.00;99.90;;;;;;4890809;29;38494;-75
2022/11/19 11:21:29;;;;;;;40.00;25.63;;;2.90;99.90;;;;;;4870105;29;36267;-73
2022/11/19 11:23:56;;;;;;;39.10;25.67;;;2.80;99.90;;;;;;4887001;29;38027;-75
2022/11/19 11:26:25;;;;;;;38.27;25.23;;;2.90;99.90;;;;;;4882577;29;38594;-76
2022/11/19 11:29:11;;;;;;;38.33;25.10;;;2.90;99.90;;;;;;4889745;29;37046;-76
2022/11/19 11:31:41;;;;;;;38.57;26.63;;;2.90;99.90;;;;;;4888795;29;47498;-76
2022/11/19 11:34:32;;;;;;;40.83;26.00;;;2.90;99.90;;;;;;4894366;29;38895;-77
2022/11/19 11:37:00;;;;;;;47.40;27.83;;;2.90;99.90;;;;;;4883786;29;37230;-76
2022/11/19 11:39:33;;;;;;;40.70;27.30;;;3.00;99.90;;;;;;4875934;29;37065;-77
2022/11/19 11:42:00;;;;;;;39.47;25.97;;;2.90;99.90;;;;;;4895927;29;35179;-77
2022/11/19 11:44:30;;;;;;;46.47;27.10;;;3.10;99.90;;;;;;4873381;29;40362;-76
2022/11/19 11:47:28;;;;;;;38.47;25.77;;;3.30;99.90;;;;;;4875042;29;36424;-76
2022/11/19 11:50:13;;;;;;;39.03;25.43;;;3.50;99.90;;;;;;4891751;29;47303;-77
2022/11/19 11:52:45;;;;;;;38.77;25.47;;;3.30;99.90;;;;;;4874587;29;48809;-76
2022/11/19 11:55:13;;;;;;;40.15;24.90;;;3.30;99.90;;;;;;4891659;29;38323;-77
2022/11/19 11:58:04;;;;;;;39.73;25.50;;;3.40;99.90;;;;;;4889921;29;37444;-77
2022/11/19 12:00:34;;;;;;;40.23;25.90;;;3.40;99.90;;;;;;4872026;29;47492;-76
2022/11/19 12:03:12;;;;;;;39.47;25.63;;;3.50;99.90;;;;;;4894285;29;37280;-77
2022/11/19 12:06:00;;;;;;;37.97;25.27;;;3.60;99.90;;;;;;4895606;29;46344;-76
2022/11/19 12:08:59;;;;;;;36.70;24.33;;;3.40;99.90;;;;;;4891360;29;39005;-76
2022/11/19 12:12:01;;;;;;;41.23;25.80;;;3.20;99.90;;;;;;4886977;29;39165;-76
2022/11/19 12:14:55;;;;;;;40.67;25.57;;;3.20;99.90;;;;;;4885722;29;36569;-76
2022/11/19 12:17:59;;;;;;;38.87;26.00;;;3.10;99.90;;;;;;4875770;29;38023;-76
2022/11/19 12:20:41;;;;;;;39.40;25.30;;;3.20;99.90;;;;;;4890678;29;37827;-76
2022/11/19 12:23:33;;;;;;;37.38;24.30;;;3.20;99.90;;;;;;4876162;29;36502;-76
2022/11/19 12:26:12;;;;;;;36.17;22.77;;;3.20;99.90;;;;;;4892700;29;36634;-76
2022/11/19 12:29:08;;;;;;;39.60;24.27;;;3.10;99.90;;;;;;4871710;29;46832;-77
2022/11/19 12:31:44;;;;;;;34.90;23.33;;;3.00;99.90;;;;;;4895625;29;48878;-77
2022/11/19 12:34:41;;;;;;;40.07;25.30;;;3.00;99.90;;;;;;4884769;29;36725;-77
2022/11/19 12:37:18;;;;;;;35.73;23.40;;;3.00;99.90;;;;;;4888956;29;37394;-78
2022/11/19 12:39:52;;;;;;;39.50;23.63;;;3.00;99.90;;;;;;4896457;29;38984;-78
2022/11/19 12:42:34;;;;;;;37.23;24.30;;;3.10;99.90;;;;;;4889413;29;37588;-79
2022/11/19 12:45:34;;;;;;;39.20;23.38;;;3.10;99.90;;;;;;4897595;29;38603;-77
2022/11/19 12:48:13;;;;;;;35.63;21.90;;;3.20;99.90;;;;;;4892354;29;48984;-78
2022/11/19 12:50:52;;;;;;;36.63;23.37;;;3.20;99.90;;;;;;4875549;29;47078;-78
2022/11/19 12:53:37;;;;;;;40.03;24.50;;;3.30;99.90;;;;;;4893172;29;37843;-77
2022/11/19 12:56:12;;;;;;;33.43;22.20;;;3.50;99.90;;;;;;4891929;29;37887;-76
2022/11/19 12:58:57;;;;;;;37.00;22.33;;;3.40;99.90;;;;;;4891399;29;47726;-78
2022/11/19 13:01:34;;;;;;;37.00;21.83;;;3.40;99.90;;;;;;4891093;29;39572;-78
2022/11/19 13:04:17;;;;;;;32.63;21.23;;;3.30;99.90;;;;;;4889388;29;38645;-78
2022/11/19 13:07:10;;;;;;;34.83;22.17;;;3.30;99.90;;;;;;4894171;29;48498;-78
2022/11/19 13:09:45;;;;;;;36.35;21.65;;;3.30;99.90;;;;;;4894706;29;48703;-77
2022/11/19 13:12:21;;;;;;;34.50;21.50;;;3.40;99.90;;;;;;4889919;29;39271;-78
2022/11/19 13:14:56;;;;;;;28.50;19.93;;;3.20;99.90;;;;;;4893478;29;39316;-78
2022/11/19 13:17:32;;;;;;;34.47;22.30;;;3.10;99.90;;;;;;4894861;29;37308;-77
2022/11/19 13:20:06;;;;;;;33.53;21.40;;;3.10;99.90;;;;;;4882054;29;37711;-77
2022/11/19 13:22:39;;;;;;;34.83;21.83;;;3.00;99.90;;;;;;4894902;29;47104;-77
2022/11/19 13:25:26;;;;;;;34.45;21.63;;;3.00;99.90;;;;;;4896439;29;38212;-77
2022/11/19 13:27:56;;;;;;;31.80;20.87;;;3.10;99.90;;;;;;4895744;29;37992;-77
2022/11/19 13:30:25;;;;;;;33.53;21.13;;;3.00;99.90;;;;;;4890861;29;37335;-77